createdAt,value
2018-04-11T00:01:08.370Z,13.67
2018-04-11T00:03:34.374Z,13.40
2018-04-11T00:06:00.355Z,13.57
2018-04-11T00:08:27.100Z,13.60
2018-04-11T00:10:53.827Z,14.67
2018-04-11T00:13:19.830Z,14.00
2018-04-11T00:15:45.812Z,13.90
2018-04-11T00:18:11.824Z,14.17
2018-04-11T00:20:38.543Z,13.87
2018-04-11T00:23:04.555Z,14.67
2018-04-11T00:25:30.531Z,13.80
2018-04-11T00:27:56.511Z,13.67
2018-04-11T00:30:22.511Z,13.97
2018-04-11T00:32:48.487Z,13.90
2018-04-11T00:35:14.515Z,13.80
2018-04-11T00:37:40.506Z,13.83
2018-04-11T00:40:07.088Z,14.20
2018-04-11T00:42:33.062Z,13.73
2018-04-11T00:44:59.070Z,13.90
2018-04-11T00:47:25.060Z,13.10
2018-04-11T00:49:51.065Z,14.03
2018-04-11T00:52:17.046Z,14.33
2018-04-11T00:54:43.045Z,13.83
2018-04-11T00:57:09.030Z,13.57
2018-04-11T00:59:35.755Z,14.07
2018-04-11T01:02:01.755Z,13.67
2018-04-11T01:04:27.746Z,13.30
2018-04-11T01:06:53.742Z,13.63
2018-04-11T01:09:19.722Z,13.93
2018-04-11T01:11:45.735Z,13.53
2018-04-11T01:14:11.719Z,14.50
2018-04-11T01:16:37.718Z,13.30
2018-04-11T01:19:03.702Z,13.57
2018-04-11T01:21:29.703Z,13.20
2018-04-11T01:23:55.690Z,12.97
2018-04-11T01:26:22.898Z,13.40
2018-04-11T01:28:48.887Z,13.13
2018-04-11T01:31:14.883Z,13.00
2018-04-11T01:33:40.871Z,13.27
2018-04-11T01:36:06.899Z,13.23
2018-04-11T01:38:32.887Z,13.40
2018-04-11T01:40:58.866Z,13.20
2018-04-11T01:43:24.876Z,13.20
2018-04-11T01:45:50.867Z,13.23
2018-04-11T01:48:16.876Z,13.33
2018-04-11T01:50:44.881Z,13.60
2018-04-11T01:53:10.884Z,12.83
2018-04-11T01:55:36.862Z,13.33
2018-04-11T01:58:02.863Z,12.50
2018-04-11T02:00:28.856Z,12.80
2018-04-11T02:02:54.863Z,12.63
2018-04-11T02:05:20.848Z,12.77
2018-04-11T02:07:46.851Z,12.70
2018-04-11T02:10:12.839Z,12.73
2018-04-11T02:12:38.839Z,12.80
2018-04-11T02:15:04.840Z,13.20
2018-04-11T02:17:30.854Z,12.03
2018-04-11T02:19:57.584Z,12.40
2018-04-11T02:22:23.580Z,11.87
2018-04-11T02:24:49.552Z,12.07
2018-04-11T02:27:15.543Z,11.63
2018-04-11T02:29:41.544Z,12.40
2018-04-11T02:32:07.551Z,11.87
2018-04-11T02:34:33.567Z,11.83
2018-04-11T02:36:59.555Z,11.83
2018-04-11T02:39:25.555Z,12.20
2018-04-11T02:41:51.534Z,11.90
2018-04-11T02:44:17.543Z,11.03
2018-04-11T02:46:43.523Z,10.70
2018-04-11T02:49:09.528Z,11.07
2018-04-11T02:51:35.524Z,11.23
2018-04-11T02:54:01.544Z,11.40
2018-04-11T02:56:27.526Z,11.47
2018-04-11T02:58:53.523Z,11.00
2018-04-11T03:01:19.507Z,11.20
2018-04-11T03:03:45.510Z,11.17
2018-04-11T03:06:11.495Z,10.97
2018-04-11T03:08:37.499Z,11.10
2018-04-11T03:11:03.491Z,11.37
2018-04-11T03:13:29.504Z,11.27
2018-04-11T03:15:55.496Z,10.67
2018-04-11T03:18:21.474Z,11.33
2018-04-11T03:20:47.475Z,10.90
2018-04-11T03:23:13.455Z,10.60
2018-04-11T03:25:39.534Z,10.10
2018-04-11T03:28:05.543Z,10.60
2018-04-11T03:30:31.549Z,10.27
2018-04-11T03:32:58.275Z,10.47
2018-04-11T03:35:24.295Z,10.67
2018-04-11T03:37:50.283Z,11.30
2018-04-11T03:40:16.282Z,10.83
2018-04-11T03:42:42.271Z,9.90
2018-04-11T03:45:08.268Z,10.90
2018-04-11T03:47:34.255Z,9.83
2018-04-11T03:50:00.251Z,10.53
2018-04-11T03:52:26.240Z,10.30
2018-04-11T03:54:52.246Z,10.63
2018-04-11T03:57:18.222Z,10.03
2018-04-11T03:59:44.963Z,11.30
2018-04-11T04:02:10.943Z,10.43
2018-04-11T04:04:36.942Z,11.03
2018-04-11T04:07:02.943Z,10.50
2018-04-11T04:09:28.931Z,10.00
2018-04-11T04:11:54.936Z,9.97
2018-04-11T04:14:33.195Z,10.23
2018-04-11T04:17:11.501Z,10.37
2018-04-11T04:19:45.674Z,9.57
2018-04-11T04:22:11.639Z,10.23
2018-04-11T04:24:37.634Z,10.70
2018-04-11T04:27:04.479Z,10.03
2018-04-11T04:29:30.467Z,10.27
2018-04-11T04:31:56.464Z,9.97
2018-04-11T04:34:22.469Z,10.60
2018-04-11T04:36:48.463Z,10.13
2018-04-11T04:39:14.446Z,10.03
2018-04-11T04:41:40.439Z,9.00
2018-04-11T04:44:06.431Z,9.63
2018-04-11T04:46:33.168Z,9.87
2018-04-11T04:48:59.160Z,9.97
2018-04-11T04:51:25.167Z,10.20
2018-04-11T04:53:51.155Z,10.43
2018-04-11T04:56:17.131Z,10.33
2018-04-11T04:58:43.126Z,9.83
2018-04-11T05:01:09.123Z,10.37
2018-04-11T05:03:35.124Z,9.23
2018-04-11T05:06:01.115Z,10.67
2018-04-11T05:08:27.124Z,9.60
2018-04-11T05:10:53.115Z,10.27
2018-04-11T05:13:19.108Z,10.10
2018-04-11T05:15:45.123Z,9.97
2018-04-11T05:18:11.124Z,9.07
2018-04-11T05:20:37.128Z,9.73
2018-04-11T05:23:03.122Z,9.93
2018-04-11T05:25:29.114Z,9.50
2018-04-11T05:27:55.119Z,9.63
2018-04-11T05:30:21.091Z,9.60
2018-04-11T05:32:47.094Z,10.23
2018-04-11T05:35:13.120Z,9.80
2018-04-11T05:37:39.119Z,9.73
2018-04-11T05:40:05.165Z,9.53
2018-04-11T05:42:31.103Z,10.57
2018-04-11T05:44:57.103Z,10.40
2018-04-11T05:47:23.091Z,9.73
2018-04-11T05:49:49.087Z,9.93
2018-04-11T05:52:15.075Z,9.37
2018-04-11T05:54:41.074Z,9.87
2018-04-11T05:57:07.058Z,9.40
2018-04-11T05:59:33.054Z,9.60
2018-04-11T06:01:59.039Z,9.27
2018-04-11T06:04:25.505Z,9.60
2018-04-11T06:06:51.490Z,8.97
2018-04-11T06:09:17.488Z,9.93
2018-04-11T06:11:43.476Z,9.80
2018-04-11T06:14:09.450Z,8.67
2018-04-11T06:16:35.439Z,9.53
2018-04-11T06:19:02.171Z,9.73
2018-04-11T06:21:28.892Z,10.27
2018-04-11T06:23:54.890Z,12.87
2018-04-11T06:26:20.875Z,17.60
2018-04-11T06:28:46.888Z,15.07
2018-04-11T06:31:12.874Z,15.63
2018-04-11T06:33:38.870Z,15.43
2018-04-11T06:36:04.892Z,14.60
2018-04-11T06:38:33.452Z,17.17
2018-04-11T06:44:02.135Z,16.23
2018-04-11T06:46:31.107Z,15.90
2018-04-11T07:42:13.821Z,19.50
2018-04-11T07:44:39.867Z,18.23
2018-04-11T07:47:05.916Z,20.63
2018-04-11T07:49:31.903Z,18.47
2018-04-11T07:51:58.650Z,21.50
2018-04-11T07:54:24.651Z,19.67
2018-04-11T07:56:50.650Z,21.03
2018-04-11T07:59:16.675Z,20.13
2018-04-11T08:01:42.664Z,20.33
2018-04-11T08:04:08.682Z,19.83
2018-04-11T08:06:34.670Z,19.70
2018-04-11T08:09:01.420Z,19.63
2018-04-11T08:11:28.160Z,23.77
2018-04-11T08:13:54.349Z,21.53
2018-04-11T08:16:20.351Z,20.60
2018-04-11T08:18:46.371Z,24.70
2018-04-11T08:21:12.379Z,21.20
2018-04-11T08:23:38.321Z,23.53
2018-04-11T08:26:04.339Z,25.63
2018-04-11T08:28:30.342Z,20.43
2018-04-11T08:30:56.346Z,19.90
2018-04-11T08:33:22.614Z,21.93
2018-04-11T08:35:48.614Z,20.70
2018-04-11T08:38:14.603Z,20.77
2018-04-11T08:40:40.579Z,20.83
2018-04-11T08:43:06.562Z,23.93
2018-04-11T08:45:33.344Z,20.60
2018-04-11T08:47:59.342Z,21.87
2018-04-11T08:50:25.367Z,25.60
2018-04-11T08:52:51.386Z,21.27
2018-04-11T08:55:17.390Z,22.93
2018-04-11T08:57:43.378Z,24.60
2018-04-11T09:00:09.391Z,21.27
2018-04-11T09:02:35.379Z,24.67
2018-04-11T09:05:01.391Z,23.40
2018-04-11T09:07:27.382Z,21.60
2018-04-11T09:09:53.375Z,21.97
2018-04-11T09:12:19.379Z,20.93
2018-04-11T09:14:45.363Z,23.37
2018-04-11T09:17:11.369Z,21.30
2018-04-11T09:19:37.398Z,21.30
2018-04-11T09:22:03.362Z,28.60
2018-04-11T09:24:29.347Z,26.67
2018-04-11T09:26:55.355Z,23.77
2018-04-11T09:29:21.346Z,24.10
2018-04-11T09:31:47.397Z,26.30
2018-04-11T09:34:13.383Z,24.67
2018-04-11T09:36:39.407Z,52.77
2018-04-11T09:39:05.394Z,46.53
2018-04-11T09:41:32.138Z,58.00
2018-04-11T09:43:58.127Z,39.67
2018-04-11T09:46:24.135Z,46.93
2018-04-11T09:48:50.215Z,56.00
2018-04-11T09:51:16.222Z,74.80
2018-04-11T09:53:42.203Z,105.73
2018-04-11T09:56:08.205Z,84.80
2018-04-11T09:58:34.215Z,74.07
2018-04-11T10:01:00.218Z,82.20
2018-04-11T10:03:26.971Z,82.67
2018-04-11T10:05:52.975Z,65.97
2018-04-11T10:08:19.727Z,66.47
2018-04-11T10:10:45.698Z,69.30
2018-04-11T10:13:11.715Z,61.50
2018-04-11T10:15:37.704Z,60.53
2018-04-11T10:18:03.722Z,58.60
2018-04-11T10:20:29.690Z,54.80
2018-04-11T10:22:55.741Z,53.47
2018-04-11T10:25:21.735Z,55.17
2018-04-11T10:27:47.746Z,58.77
2018-04-11T10:30:14.533Z,57.27
2018-04-11T10:32:40.538Z,45.67
2018-04-11T10:35:06.515Z,46.67
2018-04-11T10:37:32.522Z,46.87
2018-04-11T10:39:58.507Z,43.23
2018-04-11T10:42:24.519Z,45.00
2018-04-11T10:44:50.481Z,39.90
2018-04-11T10:47:16.442Z,38.83
2018-04-11T10:49:42.431Z,37.07
2018-04-11T10:52:08.425Z,39.07
2018-04-11T10:54:34.410Z,38.00
2018-04-11T10:57:00.397Z,32.57
2018-04-11T10:59:26.414Z,41.73
2018-04-11T11:01:52.418Z,37.73
2018-04-11T11:04:18.427Z,32.23
2018-04-11T11:06:44.411Z,32.43
2018-04-11T11:09:12.192Z,28.70
2018-04-11T11:11:38.251Z,34.43
2018-04-11T11:14:04.962Z,31.03
2018-04-11T11:16:35.787Z,27.23
2018-04-11T11:19:01.795Z,28.47
2018-04-11T11:21:27.787Z,27.87
2018-04-11T11:23:53.769Z,28.67
2018-04-11T11:26:19.766Z,29.07
2018-04-11T11:28:45.779Z,28.60
2018-04-11T11:31:11.787Z,27.30
2018-04-11T11:33:37.796Z,28.63
2018-04-11T11:36:03.807Z,28.77
2018-04-11T11:38:29.790Z,27.97
2018-04-11T11:40:55.808Z,28.67
2018-04-11T11:43:21.802Z,28.50
2018-04-11T11:45:47.778Z,29.43
2018-04-11T11:48:13.767Z,29.37
2018-04-11T11:50:39.775Z,72.63
2018-04-11T11:53:05.761Z,72.47
2018-04-11T11:55:31.766Z,70.87
2018-04-11T11:57:57.762Z,52.83
2018-04-11T12:00:23.775Z,47.93
2018-04-11T12:02:49.766Z,57.13
2018-04-11T12:05:15.766Z,50.97
2018-04-11T12:07:41.754Z,45.03
2018-04-11T12:10:07.759Z,48.47
2018-04-11T12:12:33.744Z,45.60
2018-04-11T12:14:59.743Z,38.43
2018-04-11T12:17:25.731Z,38.13
2018-04-11T12:19:51.755Z,34.07
2018-04-11T12:22:17.735Z,36.53
2018-04-11T12:24:43.726Z,34.77
2018-04-11T12:27:09.739Z,33.00
2018-04-11T12:29:35.732Z,31.63
2018-04-11T12:32:01.795Z,34.00
2018-04-11T12:34:27.775Z,32.67
2018-04-11T12:36:53.782Z,31.73
2018-04-11T12:39:19.763Z,31.23
2018-04-11T12:41:45.770Z,38.27
2018-04-11T12:44:11.767Z,31.03
2018-04-11T12:46:37.740Z,31.93
2018-04-11T12:49:03.727Z,31.67
2018-04-11T12:51:30.866Z,32.60
2018-04-11T12:53:56.923Z,30.07
2018-04-11T12:56:23.006Z,31.97
2018-04-11T12:58:49.004Z,34.27
2018-04-11T13:01:15.007Z,39.40
2018-04-11T13:03:40.990Z,33.00
2018-04-11T13:06:06.999Z,29.97
2018-04-11T13:08:33.001Z,31.53
2018-04-11T13:10:58.960Z,33.17
2018-04-11T13:13:24.975Z,35.07
2018-04-11T13:15:50.959Z,29.90
2018-04-11T13:18:16.983Z,31.80
2018-04-11T13:20:42.976Z,31.70
2018-04-11T13:23:08.982Z,31.70
2018-04-11T13:25:34.967Z,30.10
2018-04-11T13:28:00.971Z,30.90
2018-04-11T13:30:27.708Z,31.87
2018-04-11T13:32:54.761Z,29.27
2018-04-11T13:35:21.016Z,31.20
2018-04-11T13:37:47.050Z,29.23
2018-04-11T13:40:13.034Z,29.23
2018-04-11T13:42:39.790Z,30.70
2018-04-11T13:45:05.770Z,33.63
2018-04-11T13:47:31.798Z,29.03
2018-04-11T13:49:58.114Z,30.50
2018-04-11T13:52:24.094Z,31.43
2018-04-11T13:54:50.134Z,30.73
2018-04-11T13:57:16.153Z,30.77
2018-04-11T13:59:42.143Z,32.53
2018-04-11T14:02:08.127Z,31.80
2018-04-11T14:04:34.138Z,31.30
2018-04-11T14:07:00.138Z,33.13
2018-04-11T14:09:26.158Z,32.00
2018-04-11T14:11:52.145Z,32.07
2018-04-11T14:14:18.140Z,33.70
2018-04-11T14:16:44.139Z,32.50
2018-04-11T14:19:10.150Z,44.57
2018-04-11T14:21:36.147Z,42.40
2018-04-11T14:24:02.175Z,40.90
2018-04-11T14:26:28.166Z,45.17
2018-04-11T14:28:54.919Z,48.20
2018-04-11T14:31:20.909Z,52.33
2018-04-11T14:33:46.922Z,46.30
2018-04-11T14:36:12.934Z,46.73
2018-04-11T14:38:38.951Z,41.83
2018-04-11T14:41:04.958Z,39.40
2018-04-11T14:43:30.963Z,36.93
2018-04-11T14:45:57.039Z,37.20
2018-04-11T14:48:23.082Z,35.57
2018-04-11T14:50:49.071Z,36.13
2018-04-11T14:53:15.067Z,35.60
2018-04-11T14:55:41.082Z,34.97
2018-04-11T14:58:07.099Z,34.23
2018-04-11T15:00:33.106Z,34.77
2018-04-11T15:02:59.095Z,36.13
2018-04-11T15:05:25.105Z,35.80
2018-04-11T15:07:51.102Z,37.00
2018-04-11T15:10:17.115Z,34.03
2018-04-11T15:12:43.098Z,33.90
2018-04-11T15:15:09.106Z,36.47
2018-04-11T15:17:35.149Z,143.37
2018-04-11T15:20:01.171Z,118.00
2018-04-11T15:22:27.159Z,94.33
2018-04-11T15:24:53.188Z,64.60
2018-04-11T15:27:19.171Z,65.40
2018-04-11T15:29:45.185Z,61.73
2018-04-11T15:32:11.182Z,52.17
2018-04-11T15:34:38.135Z,62.50
2018-04-11T15:37:04.237Z,54.43
2018-04-11T15:39:30.218Z,56.70
2018-04-11T15:41:56.231Z,48.43
2018-04-11T15:44:22.215Z,49.80
2018-04-11T15:46:48.224Z,47.57
2018-04-11T15:49:14.205Z,47.53
2018-04-11T15:51:40.210Z,52.43
2018-04-11T15:54:06.219Z,53.00
2018-04-11T15:56:32.983Z,56.13
2018-04-11T15:58:58.984Z,48.97
2018-04-11T16:01:25.027Z,48.27
2018-04-11T16:03:50.987Z,44.37
2018-04-11T16:06:16.995Z,48.40
2018-04-11T16:08:42.983Z,40.57
2018-04-11T16:11:09.004Z,37.90
2018-04-11T16:13:35.743Z,37.40
2018-04-11T16:16:01.747Z,37.90
2018-04-11T16:18:27.736Z,35.63
2018-04-11T16:20:53.743Z,36.17
2018-04-11T16:23:19.733Z,34.80
2018-04-11T16:25:45.711Z,35.00
2018-04-11T16:28:11.727Z,35.43
2018-04-11T16:30:37.710Z,33.57
2018-04-11T16:33:03.724Z,33.47
2018-04-11T16:35:30.471Z,32.97
2018-04-11T16:37:56.659Z,34.13
2018-04-11T16:40:22.647Z,33.03
2018-04-11T16:42:48.655Z,33.80
2018-04-11T16:45:14.693Z,33.03
2018-04-11T16:47:41.427Z,34.27
2018-04-11T16:50:07.414Z,32.77
2018-04-11T16:52:33.446Z,32.03
2018-04-11T16:54:59.451Z,32.57
2018-04-11T16:57:25.487Z,32.43
2018-04-11T16:59:51.477Z,32.47
2018-04-11T17:02:17.495Z,32.37
2018-04-11T17:04:43.478Z,31.50
2018-04-11T17:07:09.479Z,30.47
2018-04-11T17:09:35.516Z,31.50
2018-04-11T17:12:01.502Z,32.00
2018-04-11T17:14:27.507Z,31.73
2018-04-11T17:16:53.497Z,30.57
2018-04-11T17:19:19.481Z,31.13
2018-04-11T17:21:57.693Z,30.37
2018-04-11T17:24:36.067Z,31.67
2018-04-11T17:27:14.371Z,31.13
2018-04-11T17:29:52.766Z,31.67
2018-04-11T17:32:18.818Z,29.90
2018-04-11T17:34:44.864Z,30.20
2018-04-11T17:37:10.948Z,28.23
2018-04-11T17:39:36.963Z,29.43
2018-04-11T17:42:07.027Z,28.93
2018-04-11T17:44:33.050Z,29.97
2018-04-11T17:46:59.038Z,28.83
2018-04-11T17:49:25.049Z,28.97
2018-04-11T17:51:51.043Z,28.70
2018-04-11T17:54:17.790Z,29.20
2018-04-11T17:56:43.779Z,29.13
2018-04-11T17:59:09.791Z,29.10
2018-04-11T18:01:35.791Z,27.53
2018-04-11T18:04:01.829Z,28.67
2018-04-11T18:06:27.790Z,28.73
2018-04-11T18:08:55.155Z,27.60
2018-04-11T18:11:21.907Z,29.37
2018-04-11T18:13:47.895Z,27.97
2018-04-11T18:16:13.894Z,26.73
2018-04-11T18:18:39.878Z,27.87
2018-04-11T18:21:05.882Z,27.90
2018-04-11T18:23:31.892Z,25.37
2018-04-11T18:25:57.899Z,26.77
2018-04-11T18:28:23.891Z,27.63
2018-04-11T18:30:49.903Z,27.20
2018-04-11T18:33:15.906Z,26.47
2018-04-11T18:35:42.675Z,25.07
2018-04-11T18:38:08.662Z,25.03
2018-04-11T18:40:35.410Z,26.90
2018-04-11T18:43:01.411Z,25.50
2018-04-11T18:45:27.428Z,26.70
2018-04-11T18:47:53.414Z,25.90
2018-04-11T18:50:19.438Z,24.40
2018-04-11T18:52:45.426Z,26.83
2018-04-11T18:55:12.179Z,25.73
2018-04-11T18:57:38.187Z,24.73
2018-04-11T19:00:04.927Z,25.63
2018-04-11T19:02:30.934Z,25.17
2018-04-11T19:04:56.919Z,25.67
2018-04-11T19:07:22.978Z,25.83
2018-04-11T19:09:48.930Z,24.07
2018-04-11T19:12:14.943Z,25.07
2018-04-11T19:14:41.666Z,24.90
2018-04-11T19:17:07.671Z,23.93
2018-04-11T19:19:33.659Z,24.03
2018-04-11T19:21:59.663Z,24.73
2018-04-11T19:24:25.662Z,24.03
2018-04-11T19:26:51.697Z,23.03
2018-04-11T19:29:17.687Z,24.10
2018-04-11T19:31:43.695Z,24.33
2018-04-11T19:34:09.698Z,24.33
2018-04-11T19:36:35.703Z,22.43
2018-04-11T19:39:05.051Z,23.10
2018-04-11T19:41:31.046Z,23.67
2018-04-11T19:43:57.064Z,22.73
2018-04-11T19:46:23.071Z,23.90
2018-04-11T19:48:49.090Z,23.70
2018-04-11T19:51:15.095Z,22.33
2018-04-11T19:53:41.145Z,23.27
2018-04-11T19:56:07.103Z,22.10
2018-04-11T19:58:33.127Z,22.47
2018-04-11T20:00:59.128Z,22.20
2018-04-11T20:03:25.149Z,21.27
2018-04-11T20:05:51.141Z,22.87
2018-04-11T20:08:17.191Z,22.23
2018-04-11T20:10:43.162Z,23.00
2018-04-11T20:13:09.170Z,22.03
2018-04-11T20:15:35.202Z,21.23
2018-04-11T20:18:01.502Z,22.60
2018-04-11T20:20:27.499Z,21.63
2018-04-11T20:22:53.508Z,21.17
2018-04-11T20:25:20.244Z,21.47
2018-04-11T20:27:47.002Z,21.03
2018-04-11T20:30:12.998Z,20.77
2018-04-11T20:32:38.978Z,22.17
2018-04-11T20:35:04.991Z,21.13
2018-04-11T20:37:30.987Z,19.87
2018-04-11T20:39:57.000Z,21.33
2018-04-11T20:42:23.748Z,20.57
2018-04-11T20:44:49.755Z,21.13
2018-04-11T20:47:16.483Z,20.90
2018-04-11T20:49:42.491Z,20.33
2018-04-11T20:52:08.479Z,20.80
2018-04-11T20:54:34.478Z,20.10
2018-04-11T20:57:00.466Z,19.70
2018-04-11T20:59:26.476Z,20.47
2018-04-11T21:01:52.471Z,19.40
2018-04-11T21:04:18.480Z,20.60
2018-04-11T21:06:44.471Z,19.90
2018-04-11T21:09:10.479Z,19.77
2018-04-11T21:11:36.467Z,20.17
2018-04-11T21:14:02.484Z,20.07
2018-04-11T21:16:28.475Z,19.57
2018-04-11T21:18:54.463Z,19.30
2018-04-11T21:21:20.477Z,19.13
2018-04-11T21:23:46.471Z,18.67
2018-04-11T21:26:12.478Z,19.03
2018-04-11T21:28:38.464Z,18.77
2018-04-11T21:31:04.470Z,20.00
2018-04-11T21:33:30.482Z,18.30
2018-04-11T21:35:56.503Z,18.67
2018-04-11T21:38:22.490Z,19.17
2018-04-11T21:40:48.507Z,19.23
2018-04-11T21:43:14.493Z,18.00
2018-04-11T21:45:40.501Z,18.80
2018-04-11T21:48:06.488Z,19.60
2018-04-11T21:50:32.499Z,19.13
2018-04-11T21:52:58.487Z,18.77
2018-04-11T21:55:24.503Z,17.43
2018-04-11T21:57:50.482Z,18.27
2018-04-11T22:00:16.491Z,19.17
2018-04-11T22:02:42.487Z,18.77
2018-04-11T22:05:08.474Z,17.20
2018-04-11T22:07:34.483Z,17.60
2018-04-11T22:10:00.487Z,17.67
2018-04-11T22:12:26.490Z,18.30
2018-04-11T22:14:52.480Z,17.20
2018-04-11T22:17:18.482Z,18.07
2018-04-11T22:19:44.465Z,17.83
2018-04-11T22:22:10.467Z,17.70
2018-04-11T22:24:36.459Z,17.83
2018-04-11T22:27:02.478Z,17.90
2018-04-11T22:29:28.467Z,17.47
2018-04-11T22:31:54.483Z,17.60
2018-04-11T22:34:20.488Z,17.83
2018-04-11T22:36:46.493Z,17.00
2018-04-11T22:39:13.223Z,16.57
2018-04-11T22:41:39.234Z,17.57
2018-04-11T22:44:05.231Z,16.97
2018-04-11T22:46:31.232Z,16.60
2018-04-11T22:48:57.225Z,16.80
2018-04-11T22:51:23.255Z,16.97
2018-04-11T22:53:49.254Z,16.77
2018-04-11T22:56:15.256Z,17.27
2018-04-11T22:58:41.279Z,16.57
2018-04-11T23:01:07.270Z,16.47
2018-04-11T23:03:33.299Z,16.10
2018-04-11T23:05:59.292Z,17.00
2018-04-11T23:08:25.303Z,17.17
2018-04-11T23:10:51.353Z,16.87
2018-04-11T23:13:17.327Z,17.43
2018-04-11T23:15:43.323Z,16.67
2018-04-11T23:18:09.340Z,16.13
2018-04-11T23:20:35.338Z,16.60
2018-04-11T23:23:01.353Z,17.10
2018-04-11T23:25:27.355Z,16.50
2018-04-11T23:27:53.363Z,16.57
2018-04-11T23:30:19.352Z,16.60
2018-04-11T23:32:45.362Z,16.50
2018-04-11T23:35:12.132Z,16.90
2018-04-11T23:37:38.147Z,16.13
2018-04-11T23:40:04.140Z,16.97
2018-04-11T23:42:30.131Z,17.33
2018-04-11T23:44:56.138Z,16.43
2018-04-11T23:47:22.118Z,16.47
2018-04-11T23:49:48.866Z,16.50
2018-04-11T23:52:14.851Z,16.60
2018-04-11T23:54:40.854Z,16.73
2018-04-11T23:57:06.842Z,17.13
2018-04-11T23:59:32.867Z,15.80
